sensor_id;sensor_type;location;lat;lon;timestamp;P1;durP1;ratioP1;P2;durP2;ratioP2
43756;SDS011;73222;41.866;12.462;2024-03-17T00:02:12;31.38;;;15.48;;
43756;SDS011;73222;41.866;12.462;2024-03-17T00:04:38;27.65;;;15.75;;
43756;SDS011;73222;41.866;12.462;2024-03-17T00:07:03;28.98;;;14.27;;
43756;SDS011;73222;41.866;12.462;2024-03-17T00:09:29;27.52;;;14.65;;
43756;SDS011;73222;41.866;12.462;2024-03-17T00:11:55;28.63;;;15.25;;
43756;SDS011;73222;41.866;12.462;2024-03-17T00:14:20;25.55;;;15.60;;
43756;SDS011;73222;41.866;12.462;2024-03-17T00:16:46;28.00;;;13.82;;
43756;SDS011;73222;41.866;12.462;2024-03-17T00:19:13;25.33;;;14.73;;
43756;SDS011;73222;41.866;12.462;2024-03-17T00:21:39;25.27;;;14.02;;
43756;SDS011;73222;41.866;12.462;2024-03-17T00:24:05;25.67;;;14.95;;
43756;SDS011;73222;41.866;12.462;2024-03-17T00:26:30;30.70;;;16.38;;
43756;SDS011;73222;41.866;12.462;2024-03-17T00:28:56;31.85;;;16.60;;
43756;SDS011;73222;41.866;12.462;2024-03-17T00:31:22;25.85;;;14.90;;
43756;SDS011;73222;41.866;12.462;2024-03-17T00:33:51;32.33;;;15.90;;
43756;SDS011;73222;41.866;12.462;2024-03-17T00:36:17;27.25;;;15.57;;
43756;SDS011;73222;41.866;12.462;2024-03-17T00:38:42;27.67;;;16.42;;
43756;SDS011;73222;41.866;12.462;2024-03-17T00:41:07;32.28;;;17.17;;
43756;SDS011;73222;41.866;12.462;2024-03-17T00:43:33;31.77;;;16.02;;
43756;SDS011;73222;41.866;12.462;2024-03-17T00:45:58;32.30;;;16.63;;
43756;SDS011;73222;41.866;12.462;2024-03-17T00:48:24;25.63;;;16.00;;
43756;SDS011;73222;41.866;12.462;2024-03-17T00:50:54;30.50;;;17.42;;
43756;SDS011;73222;41.866;12.462;2024-03-17T00:53:20;24.02;;;15.63;;
43756;SDS011;73222;41.866;12.462;2024-03-17T00:55:50;26.00;;;17.15;;
43756;SDS011;73222;41.866;12.462;2024-03-17T00:58:22;29.00;;;16.40;;
43756;SDS011;73222;41.866;12.462;2024-03-17T01:00:47;30.10;;;16.25;;
43756;SDS011;73222;41.866;12.462;2024-03-17T01:03:13;31.98;;;16.20;;
43756;SDS011;73222;41.866;12.462;2024-03-17T01:05:40;24.80;;;15.85;;
43756;SDS011;73222;41.866;12.462;2024-03-17T01:08:08;29.85;;;17.00;;
43756;SDS011;73222;41.866;12.462;2024-03-17T01:10:36;24.83;;;16.25;;
43756;SDS011;73222;41.866;12.462;2024-03-17T01:13:03;27.17;;;16.35;;
43756;SDS011;73222;41.866;12.462;2024-03-17T01:15:30;24.23;;;15.85;;
43756;SDS011;73222;41.866;12.462;2024-03-17T01:17:55;33.25;;;16.77;;
43756;SDS011;73222;41.866;12.462;2024-03-17T01:20:20;31.05;;;16.27;;
43756;SDS011;73222;41.866;12.462;2024-03-17T01:22:45;32.85;;;16.27;;
43756;SDS011;73222;41.866;12.462;2024-03-17T01:25:11;29.10;;;16.73;;
43756;SDS011;73222;41.866;12.462;2024-03-17T01:27:37;33.85;;;16.95;;
43756;SDS011;73222;41.866;12.462;2024-03-17T01:30:03;30.77;;;17.17;;
43756;SDS011;73222;41.866;12.462;2024-03-17T01:32:28;24.67;;;16.33;;
43756;SDS011;73222;41.866;12.462;2024-03-17T01:34:54;32.40;;;17.30;;
43756;SDS011;73222;41.866;12.462;2024-03-17T01:37:19;31.13;;;17.85;;
43756;SDS011;73222;41.866;12.462;2024-03-17T01:39:44;30.60;;;17.50;;
43756;SDS011;73222;41.866;12.462;2024-03-17T01:42:10;29.80;;;17.80;;
43756;SDS011;73222;41.866;12.462;2024-03-17T01:44:35;28.10;;;18.55;;
43756;SDS011;73222;41.866;12.462;2024-03-17T01:47:00;33.58;;;19.80;;
43756;SDS011;73222;41.866;12.462;2024-03-17T01:49:26;32.63;;;18.80;;
43756;SDS011;73222;41.866;12.462;2024-03-17T01:51:51;29.08;;;18.63;;
43756;SDS011;73222;41.866;12.462;2024-03-17T01:54:18;33.10;;;19.90;;
43756;SDS011;73222;41.866;12.462;2024-03-17T01:56:43;35.63;;;21.55;;
43756;SDS011;73222;41.866;12.462;2024-03-17T01:59:10;35.40;;;20.65;;
43756;SDS011;73222;41.866;12.462;2024-03-17T02:01:36;34.53;;;20.48;;
43756;SDS011;73222;41.866;12.462;2024-03-17T02:04:02;28.65;;;18.13;;
43756;SDS011;73222;41.866;12.462;2024-03-17T02:06:28;35.15;;;20.17;;
43756;SDS011;73222;41.866;12.462;2024-03-17T02:08:54;32.63;;;20.13;;
43756;SDS011;73222;41.866;12.462;2024-03-17T02:11:23;30.90;;;19.45;;
43756;SDS011;73222;41.866;12.462;2024-03-17T02:13:48;31.08;;;19.00;;
43756;SDS011;73222;41.866;12.462;2024-03-17T02:16:15;28.73;;;18.35;;
43756;SDS011;73222;41.866;12.462;2024-03-17T02:18:40;32.25;;;20.55;;
43756;SDS011;73222;41.866;12.462;2024-03-17T02:21:05;33.80;;;19.17;;
43756;SDS011;73222;41.866;12.462;2024-03-17T02:23:33;40.50;;;19.27;;
43756;SDS011;73222;41.866;12.462;2024-03-17T02:25:58;32.95;;;19.13;;
43756;SDS011;73222;41.866;12.462;2024-03-17T02:28:24;32.60;;;19.88;;
43756;SDS011;73222;41.866;12.462;2024-03-17T02:30:49;32.30;;;18.38;;
43756;SDS011;73222;41.866;12.462;2024-03-17T02:33:14;36.63;;;19.50;;
43756;SDS011;73222;41.866;12.462;2024-03-17T02:35:40;38.72;;;18.83;;
43756;SDS011;73222;41.866;12.462;2024-03-17T02:38:06;30.73;;;18.50;;
43756;SDS011;73222;41.866;12.462;2024-03-17T02:40:32;30.27;;;18.85;;
43756;SDS011;73222;41.866;12.462;2024-03-17T02:42:58;29.23;;;17.90;;
43756;SDS011;73222;41.866;12.462;2024-03-17T02:45:24;39.15;;;19.00;;
43756;SDS011;73222;41.866;12.462;2024-03-17T02:47:49;31.40;;;20.17;;
43756;SDS011;73222;41.866;12.462;2024-03-17T02:50:15;28.27;;;18.60;;
43756;SDS011;73222;41.866;12.462;2024-03-17T02:52:40;31.50;;;19.83;;
43756;SDS011;73222;41.866;12.462;2024-03-17T02:55:06;35.95;;;20.70;;
43756;SDS011;73222;41.866;12.462;2024-03-17T02:57:32;29.15;;;21.05;;
43756;SDS011;73222;41.866;12.462;2024-03-17T02:59:57;31.75;;;20.23;;
43756;SDS011;73222;41.866;12.462;2024-03-17T03:02:23;30.52;;;19.23;;
43756;SDS011;73222;41.866;12.462;2024-03-17T03:04:49;29.30;;;19.75;;
43756;SDS011;73222;41.866;12.462;2024-03-17T03:07:15;32.85;;;20.00;;
43756;SDS011;73222;41.866;12.462;2024-03-17T03:09:40;32.40;;;20.30;;
43756;SDS011;73222;41.866;12.462;2024-03-17T03:12:05;32.65;;;20.13;;
43756;SDS011;73222;41.866;12.462;2024-03-17T03:14:32;31.50;;;19.80;;
43756;SDS011;73222;41.866;12.462;2024-03-17T03:16:58;30.13;;;18.45;;
43756;SDS011;73222;41.866;12.462;2024-03-17T03:19:24;28.10;;;17.65;;
43756;SDS011;73222;41.866;12.462;2024-03-17T03:21:49;28.63;;;17.02;;
43756;SDS011;73222;41.866;12.462;2024-03-17T03:24:15;28.75;;;18.08;;
43756;SDS011;73222;41.866;12.462;2024-03-17T03:26:40;31.38;;;18.08;;
43756;SDS011;73222;41.866;12.462;2024-03-17T03:29:06;29.48;;;17.35;;
43756;SDS011;73222;41.866;12.462;2024-03-17T03:31:34;25.60;;;16.33;;
43756;SDS011;73222;41.866;12.462;2024-03-17T03:33:59;25.55;;;16.63;;
43756;SDS011;73222;41.866;12.462;2024-03-17T03:36:28;26.77;;;16.73;;
43756;SDS011;73222;41.866;12.462;2024-03-17T03:38:54;30.45;;;17.58;;
43756;SDS011;73222;41.866;12.462;2024-03-17T03:41:22;31.73;;;17.80;;
43756;SDS011;73222;41.866;12.462;2024-03-17T03:43:48;29.27;;;18.15;;
43756;SDS011;73222;41.866;12.462;2024-03-17T03:46:14;30.65;;;17.83;;
43756;SDS011;73222;41.866;12.462;2024-03-17T03:48:40;28.45;;;16.73;;
43756;SDS011;73222;41.866;12.462;2024-03-17T03:51:06;25.48;;;15.77;;
43756;SDS011;73222;41.866;12.462;2024-03-17T03:53:36;30.90;;;17.75;;
43756;SDS011;73222;41.866;12.462;2024-03-17T03:56:02;31.85;;;16.90;;
43756;SDS011;73222;41.866;12.462;2024-03-17T03:58:31;26.98;;;16.00;;
43756;SDS011;73222;41.866;12.462;2024-03-17T04:00:57;26.73;;;17.40;;
43756;SDS011;73222;41.866;12.462;2024-03-17T04:03:22;29.55;;;16.50;;
43756;SDS011;73222;41.866;12.462;2024-03-17T04:05:48;26.10;;;16.35;;
43756;SDS011;73222;41.866;12.462;2024-03-17T04:08:13;28.08;;;16.67;;
43756;SDS011;73222;41.866;12.462;2024-03-17T04:13:23;29.88;;;17.20;;
43756;SDS011;73222;41.866;12.462;2024-03-17T04:15:48;29.08;;;17.33;;
43756;SDS011;73222;41.866;12.462;2024-03-17T04:18:14;29.45;;;18.65;;
43756;SDS011;73222;41.866;12.462;2024-03-17T04:20:42;26.58;;;16.33;;
43756;SDS011;73222;41.866;12.462;2024-03-17T04:23:08;31.52;;;18.50;;
43756;SDS011;73222;41.866;12.462;2024-03-17T04:25:33;28.83;;;16.20;;
43756;SDS011;73222;41.866;12.462;2024-03-17T04:27:58;23.73;;;16.48;;
43756;SDS011;73222;41.866;12.462;2024-03-17T04:30:24;29.58;;;18.75;;
43756;SDS011;73222;41.866;12.462;2024-03-17T04:32:49;27.70;;;17.80;;
43756;SDS011;73222;41.866;12.462;2024-03-17T04:35:15;28.23;;;17.75;;
43756;SDS011;73222;41.866;12.462;2024-03-17T04:37:40;27.13;;;18.02;;
43756;SDS011;73222;41.866;12.462;2024-03-17T04:40:06;29.08;;;16.75;;
43756;SDS011;73222;41.866;12.462;2024-03-17T04:42:34;30.15;;;18.02;;
43756;SDS011;73222;41.866;12.462;2024-03-17T04:45:00;30.10;;;17.33;;
43756;SDS011;73222;41.866;12.462;2024-03-17T04:47:25;24.70;;;17.70;;
43756;SDS011;73222;41.866;12.462;2024-03-17T04:49:51;22.45;;;15.52;;
43756;SDS011;73222;41.866;12.462;2024-03-17T04:52:16;30.90;;;16.80;;
43756;SDS011;73222;41.866;12.462;2024-03-17T04:54:41;26.13;;;18.63;;
43756;SDS011;73222;41.866;12.462;2024-03-17T04:57:08;31.50;;;17.63;;
43756;SDS011;73222;41.866;12.462;2024-03-17T04:59:34;26.58;;;17.15;;
43756;SDS011;73222;41.866;12.462;2024-03-17T05:02:00;29.45;;;17.48;;
43756;SDS011;73222;41.866;12.462;2024-03-17T05:04:25;27.65;;;16.52;;
43756;SDS011;73222;41.866;12.462;2024-03-17T05:06:50;30.83;;;19.98;;
43756;SDS011;73222;41.866;12.462;2024-03-17T05:09:16;27.73;;;18.25;;
43756;SDS011;73222;41.866;12.462;2024-03-17T05:11:42;31.63;;;19.98;;
43756;SDS011;73222;41.866;12.462;2024-03-17T05:14:08;29.17;;;19.52;;
43756;SDS011;73222;41.866;12.462;2024-03-17T05:16:33;30.17;;;19.30;;
43756;SDS011;73222;41.866;12.462;2024-03-17T05:18:59;32.10;;;20.95;;
43756;SDS011;73222;41.866;12.462;2024-03-17T05:21:25;35.70;;;19.98;;
43756;SDS011;73222;41.866;12.462;2024-03-17T05:23:51;26.48;;;18.70;;
43756;SDS011;73222;41.866;12.462;2024-03-17T05:26:17;28.33;;;19.63;;
43756;SDS011;73222;41.866;12.462;2024-03-17T05:28:42;33.28;;;19.13;;
43756;SDS011;73222;41.866;12.462;2024-03-17T05:31:08;32.20;;;20.42;;
43756;SDS011;73222;41.866;12.462;2024-03-17T05:33:34;26.95;;;18.15;;
43756;SDS011;73222;41.866;12.462;2024-03-17T05:36:02;28.38;;;19.08;;
43756;SDS011;73222;41.866;12.462;2024-03-17T05:43:27;28.15;;;17.02;;
43756;SDS011;73222;41.866;12.462;2024-03-17T05:45:53;28.35;;;17.58;;
43756;SDS011;73222;41.866;12.462;2024-03-17T05:48:20;25.73;;;16.60;;
43756;SDS011;73222;41.866;12.462;2024-03-17T05:50:45;23.55;;;16.00;;
43756;SDS011;73222;41.866;12.462;2024-03-17T05:53:11;24.13;;;16.70;;
43756;SDS011;73222;41.866;12.462;2024-03-17T05:55:37;24.55;;;15.05;;
43756;SDS011;73222;41.866;12.462;2024-03-17T05:58:03;22.23;;;14.98;;
43756;SDS011;73222;41.866;12.462;2024-03-17T06:00:28;23.42;;;15.93;;
43756;SDS011;73222;41.866;12.462;2024-03-17T06:02:55;25.92;;;16.27;;
43756;SDS011;73222;41.866;12.462;2024-03-17T06:05:21;23.70;;;14.88;;
43756;SDS011;73222;41.866;12.462;2024-03-17T06:07:46;22.80;;;13.82;;
43756;SDS011;73222;41.866;12.462;2024-03-17T06:10:12;23.38;;;13.95;;
43756;SDS011;73222;41.866;12.462;2024-03-17T06:12:37;21.15;;;14.23;;
43756;SDS011;73222;41.866;12.462;2024-03-17T06:15:03;18.05;;;12.98;;
43756;SDS011;73222;41.866;12.462;2024-03-17T06:17:29;19.55;;;13.27;;
43756;SDS011;73222;41.866;12.462;2024-03-17T06:19:55;20.65;;;12.65;;
43756;SDS011;73222;41.866;12.462;2024-03-17T06:22:22;19.80;;;13.63;;
43756;SDS011;73222;41.866;12.462;2024-03-17T06:24:48;20.60;;;12.70;;
43756;SDS011;73222;41.866;12.462;2024-03-17T06:27:14;19.35;;;12.63;;
43756;SDS011;73222;41.866;12.462;2024-03-17T06:29:39;16.08;;;12.77;;
43756;SDS011;73222;41.866;12.462;2024-03-17T06:32:05;16.98;;;12.10;;
43756;SDS011;73222;41.866;12.462;2024-03-17T06:34:30;19.27;;;12.85;;
43756;SDS011;73222;41.866;12.462;2024-03-17T06:36:56;17.52;;;11.63;;
43756;SDS011;73222;41.866;12.462;2024-03-17T06:39:21;17.92;;;13.10;;
43756;SDS011;73222;41.866;12.462;2024-03-17T06:41:47;20.42;;;12.05;;
43756;SDS011;73222;41.866;12.462;2024-03-17T06:44:12;18.40;;;12.27;;
43756;SDS011;73222;41.866;12.462;2024-03-17T06:46:37;19.27;;;12.43;;
43756;SDS011;73222;41.866;12.462;2024-03-17T06:49:03;16.35;;;11.55;;
43756;SDS011;73222;41.866;12.462;2024-03-17T06:51:28;14.48;;;12.40;;
43756;SDS011;73222;41.866;12.462;2024-03-17T06:53:54;16.27;;;12.27;;
43756;SDS011;73222;41.866;12.462;2024-03-17T06:56:20;16.95;;;13.18;;
43756;SDS011;73222;41.866;12.462;2024-03-17T06:58:47;19.25;;;12.00;;
43756;SDS011;73222;41.866;12.462;2024-03-17T07:01:12;15.13;;;11.93;;
43756;SDS011;73222;41.866;12.462;2024-03-17T07:03:38;18.63;;;12.05;;
43756;SDS011;73222;41.866;12.462;2024-03-17T07:06:03;17.73;;;11.57;;
43756;SDS011;73222;41.866;12.462;2024-03-17T07:08:30;13.48;;;11.35;;
43756;SDS011;73222;41.866;12.462;2024-03-17T07:13:33;21.17;;;11.98;;
43756;SDS011;73222;41.866;12.462;2024-03-17T07:16:03;16.65;;;11.93;;
43756;SDS011;73222;41.866;12.462;2024-03-17T07:18:33;16.25;;;12.63;;
43756;SDS011;73222;41.866;12.462;2024-03-17T07:21:00;17.63;;;11.98;;
43756;SDS011;73222;41.866;12.462;2024-03-17T07:23:29;14.40;;;12.27;;
43756;SDS011;73222;41.866;12.462;2024-03-17T07:25:55;14.77;;;12.40;;
43756;SDS011;73222;41.866;12.462;2024-03-17T07:28:22;14.30;;;11.20;;
43756;SDS011;73222;41.866;12.462;2024-03-17T07:30:48;20.73;;;11.20;;
43756;SDS011;73222;41.866;12.462;2024-03-17T07:33:15;15.50;;;10.23;;
43756;SDS011;73222;41.866;12.462;2024-03-17T07:35:50;13.93;;;10.27;;
43756;SDS011;73222;41.866;12.462;2024-03-17T07:38:18;13.70;;;10.25;;
43756;SDS011;73222;41.866;12.462;2024-03-17T07:40:44;14.45;;;9.95;;
43756;SDS011;73222;41.866;12.462;2024-03-17T07:43:10;16.05;;;10.20;;
43756;SDS011;73222;41.866;12.462;2024-03-17T07:45:36;14.10;;;10.63;;
43756;SDS011;73222;41.866;12.462;2024-03-17T07:48:02;11.02;;;9.65;;
43756;SDS011;73222;41.866;12.462;2024-03-17T07:50:28;12.93;;;9.82;;
43756;SDS011;73222;41.866;12.462;2024-03-17T07:52:53;12.70;;;10.07;;
43756;SDS011;73222;41.866;12.462;2024-03-17T07:55:18;11.27;;;9.85;;
43756;SDS011;73222;41.866;12.462;2024-03-17T07:57:44;13.25;;;11.25;;
43756;SDS011;73222;41.866;12.462;2024-03-17T08:00:10;12.57;;;10.50;;
43756;SDS011;73222;41.866;12.462;2024-03-17T08:02:49;12.95;;;9.45;;
43756;SDS011;73222;41.866;12.462;2024-03-17T08:05:15;11.25;;;10.02;;
43756;SDS011;73222;41.866;12.462;2024-03-17T08:07:40;12.63;;;9.93;;
43756;SDS011;73222;41.866;12.462;2024-03-17T08:10:07;13.10;;;9.90;;
43756;SDS011;73222;41.866;12.462;2024-03-17T08:12:33;12.80;;;9.60;;
43756;SDS011;73222;41.866;12.462;2024-03-17T08:14:58;11.88;;;9.20;;
43756;SDS011;73222;41.866;12.462;2024-03-17T08:17:24;11.05;;;8.38;;
43756;SDS011;73222;41.866;12.462;2024-03-17T08:19:50;10.07;;;8.52;;
43756;SDS011;73222;41.866;12.462;2024-03-17T08:22:15;9.77;;;8.27;;
43756;SDS011;73222;41.866;12.462;2024-03-17T08:24:41;10.90;;;7.88;;
43756;SDS011;73222;41.866;12.462;2024-03-17T08:27:07;10.25;;;8.50;;
43756;SDS011;73222;41.866;12.462;2024-03-17T08:29:32;11.23;;;8.27;;
43756;SDS011;73222;41.866;12.462;2024-03-17T08:32:00;10.93;;;8.18;;
43756;SDS011;73222;41.866;12.462;2024-03-17T08:34:26;10.98;;;7.63;;
43756;SDS011;73222;41.866;12.462;2024-03-17T08:36:52;10.43;;;7.90;;
43756;SDS011;73222;41.866;12.462;2024-03-17T08:39:17;10.15;;;7.70;;
43756;SDS011;73222;41.866;12.462;2024-03-17T08:41:44;9.23;;;6.97;;
43756;SDS011;73222;41.866;12.462;2024-03-17T08:44:10;10.05;;;8.05;;
43756;SDS011;73222;41.866;12.462;2024-03-17T08:46:36;9.10;;;7.40;;
43756;SDS011;73222;41.866;12.462;2024-03-17T08:49:01;9.70;;;8.70;;
43756;SDS011;73222;41.866;12.462;2024-03-17T08:51:26;10.90;;;7.88;;
43756;SDS011;73222;41.866;12.462;2024-03-17T08:53:52;9.23;;;7.57;;
43756;SDS011;73222;41.866;12.462;2024-03-17T08:56:18;12.40;;;7.40;;
43756;SDS011;73222;41.866;12.462;2024-03-17T08:58:45;9.77;;;7.38;;
43756;SDS011;73222;41.866;12.462;2024-03-17T09:01:11;10.93;;;8.02;;
43756;SDS011;73222;41.866;12.462;2024-03-17T09:03:39;8.60;;;7.22;;
43756;SDS011;73222;41.866;12.462;2024-03-17T09:06:11;11.77;;;7.88;;
43756;SDS011;73222;41.866;12.462;2024-03-17T09:08:40;10.75;;;7.07;;
43756;SDS011;73222;41.866;12.462;2024-03-17T09:11:06;9.18;;;7.43;;
43756;SDS011;73222;41.866;12.462;2024-03-17T09:13:38;8.50;;;7.63;;
43756;SDS011;73222;41.866;12.462;2024-03-17T09:16:03;9.32;;;7.05;;
43756;SDS011;73222;41.866;12.462;2024-03-17T09:18:29;10.43;;;7.40;;
43756;SDS011;73222;41.866;12.462;2024-03-17T09:23:22;6.88;;;5.88;;
43756;SDS011;73222;41.866;12.462;2024-03-17T09:25:57;7.45;;;6.43;;
43756;SDS011;73222;41.866;12.462;2024-03-17T09:28:24;9.32;;;6.78;;
43756;SDS011;73222;41.866;12.462;2024-03-17T09:30:49;9.00;;;6.05;;
43756;SDS011;73222;41.866;12.462;2024-03-17T09:33:15;6.75;;;4.90;;
43756;SDS011;73222;41.866;12.462;2024-03-17T09:35:40;6.57;;;4.68;;
43756;SDS011;73222;41.866;12.462;2024-03-17T09:38:06;8.52;;;5.55;;
43756;SDS011;73222;41.866;12.462;2024-03-17T09:40:31;7.30;;;5.45;;
43756;SDS011;73222;41.866;12.462;2024-03-17T09:42:57;8.45;;;6.40;;
43756;SDS011;73222;41.866;12.462;2024-03-17T09:45:25;7.65;;;5.20;;
43756;SDS011;73222;41.866;12.462;2024-03-17T09:47:58;8.73;;;6.35;;
43756;SDS011;73222;41.866;12.462;2024-03-17T09:50:24;8.25;;;5.75;;
43756;SDS011;73222;41.866;12.462;2024-03-17T09:52:50;7.18;;;6.13;;
43756;SDS011;73222;41.866;12.462;2024-03-17T09:55:17;7.82;;;5.57;;
43756;SDS011;73222;41.866;12.462;2024-03-17T09:57:43;9.35;;;6.40;;
43756;SDS011;73222;41.866;12.462;2024-03-17T10:00:11;8.43;;;5.10;;
43756;SDS011;73222;41.866;12.462;2024-03-17T10:02:41;8.05;;;5.00;;
43756;SDS011;73222;41.866;12.462;2024-03-17T10:05:17;7.70;;;4.65;;
43756;SDS011;73222;41.866;12.462;2024-03-17T10:07:44;7.38;;;5.63;;
43756;SDS011;73222;41.866;12.462;2024-03-17T10:10:12;7.97;;;5.60;;
43756;SDS011;73222;41.866;12.462;2024-03-17T10:12:38;6.90;;;4.95;;
43756;SDS011;73222;41.866;12.462;2024-03-17T10:15:04;7.70;;;4.90;;
43756;SDS011;73222;41.866;12.462;2024-03-17T10:17:30;10.48;;;4.22;;
43756;SDS011;73222;41.866;12.462;2024-03-17T10:22:57;7.93;;;4.30;;
43756;SDS011;73222;41.866;12.462;2024-03-17T10:25:27;6.38;;;4.80;;
43756;SDS011;73222;41.866;12.462;2024-03-17T10:27:56;5.57;;;4.57;;
43756;SDS011;73222;41.866;12.462;2024-03-17T10:30:22;4.70;;;4.18;;
43756;SDS011;73222;41.866;12.462;2024-03-17T10:32:57;5.47;;;4.22;;
43756;SDS011;73222;41.866;12.462;2024-03-17T10:37:56;6.50;;;4.50;;
43756;SDS011;73222;41.866;12.462;2024-03-17T10:40:23;7.05;;;5.40;;
43756;SDS011;73222;41.866;12.462;2024-03-17T10:42:49;7.00;;;5.20;;
43756;SDS011;73222;41.866;12.462;2024-03-17T10:45:17;7.88;;;4.97;;
43756;SDS011;73222;41.866;12.462;2024-03-17T10:47:47;6.35;;;4.93;;
43756;SDS011;73222;41.866;12.462;2024-03-17T10:50:21;7.30;;;4.78;;
43756;SDS011;73222;41.866;12.462;2024-03-17T10:52:52;7.45;;;4.60;;
43756;SDS011;73222;41.866;12.462;2024-03-17T10:55:23;6.55;;;4.40;;
43756;SDS011;73222;41.866;12.462;2024-03-17T10:57:51;8.50;;;4.90;;
43756;SDS011;73222;41.866;12.462;2024-03-17T11:00:18;6.95;;;4.85;;
43756;SDS011;73222;41.866;12.462;2024-03-17T11:02:47;6.78;;;4.93;;
43756;SDS011;73222;41.866;12.462;2024-03-17T11:05:18;6.03;;;5.18;;
43756;SDS011;73222;41.866;12.462;2024-03-17T11:07:58;5.47;;;4.32;;
43756;SDS011;73222;41.866;12.462;2024-03-17T11:10:28;7.60;;;4.60;;
43756;SDS011;73222;41.866;12.462;2024-03-17T11:17:50;7.47;;;4.47;;
43756;SDS011;73222;41.866;12.462;2024-03-17T11:22:54;9.40;;;4.72;;
43756;SDS011;73222;41.866;12.462;2024-03-17T11:38:54;8.85;;;4.60;;
43756;SDS011;73222;41.866;12.462;2024-03-17T11:41:36;7.32;;;4.25;;
43756;SDS011;73222;41.866;12.462;2024-03-17T11:44:13;6.72;;;4.72;;
43756;SDS011;73222;41.866;12.462;2024-03-17T11:46:57;6.22;;;4.30;;
43756;SDS011;73222;41.866;12.462;2024-03-17T11:51:50;9.50;;;4.50;;
43756;SDS011;73222;41.866;12.462;2024-03-17T11:54:20;7.25;;;3.67;;
43756;SDS011;73222;41.866;12.462;2024-03-17T11:56:49;5.88;;;3.78;;
43756;SDS011;73222;41.866;12.462;2024-03-17T11:59:15;5.10;;;3.40;;
43756;SDS011;73222;41.866;12.462;2024-03-17T12:01:47;4.70;;;3.60;;
43756;SDS011;73222;41.866;12.462;2024-03-17T12:04:14;6.82;;;4.20;;
43756;SDS011;73222;41.866;12.462;2024-03-17T12:06:59;6.22;;;3.97;;
43756;SDS011;73222;41.866;12.462;2024-03-17T12:09:28;6.63;;;3.88;;
43756;SDS011;73222;41.866;12.462;2024-03-17T12:12:06;5.15;;;3.67;;
43756;SDS011;73222;41.866;12.462;2024-03-17T12:14:34;6.55;;;3.80;;
43756;SDS011;73222;41.866;12.462;2024-03-17T12:17:02;6.22;;;3.75;;
43756;SDS011;73222;41.866;12.462;2024-03-17T12:19:35;5.97;;;3.78;;
43756;SDS011;73222;41.866;12.462;2024-03-17T12:22:01;6.78;;;3.88;;
43756;SDS011;73222;41.866;12.462;2024-03-17T12:24:29;6.43;;;3.92;;
43756;SDS011;73222;41.866;12.462;2024-03-17T12:27:06;5.90;;;3.67;;
43756;SDS011;73222;41.866;12.462;2024-03-17T12:32:04;4.45;;;3.30;;
43756;SDS011;73222;41.866;12.462;2024-03-17T12:34:31;7.20;;;3.95;;
43756;SDS011;73222;41.866;12.462;2024-03-17T12:36:58;6.32;;;3.78;;
43756;SDS011;73222;41.866;12.462;2024-03-17T12:39:27;7.10;;;4.55;;
43756;SDS011;73222;41.866;12.462;2024-03-17T12:42:04;7.32;;;4.57;;
43756;SDS011;73222;41.866;12.462;2024-03-17T12:44:31;6.07;;;4.07;;
43756;SDS011;73222;41.866;12.462;2024-03-17T12:47:01;6.90;;;4.25;;
43756;SDS011;73222;41.866;12.462;2024-03-17T12:49:31;7.65;;;4.75;;
43756;SDS011;73222;41.866;12.462;2024-03-17T12:51:59;9.95;;;4.40;;
43756;SDS011;73222;41.866;12.462;2024-03-17T12:54:26;11.93;;;4.35;;
43756;SDS011;73222;41.866;12.462;2024-03-17T12:57:25;12.77;;;4.97;;
43756;SDS011;73222;41.866;12.462;2024-03-17T13:00:16;8.75;;;5.10;;
43756;SDS011;73222;41.866;12.462;2024-03-17T13:02:57;8.38;;;4.10;;
43756;SDS011;73222;41.866;12.462;2024-03-17T13:05:23;7.63;;;4.88;;
43756;SDS011;73222;41.866;12.462;2024-03-17T13:07:49;10.63;;;4.93;;
43756;SDS011;73222;41.866;12.462;2024-03-17T13:10:18;8.07;;;5.22;;
43756;SDS011;73222;41.866;12.462;2024-03-17T13:12:48;8.40;;;5.57;;
43756;SDS011;73222;41.866;12.462;2024-03-17T13:15:17;12.52;;;5.78;;
43756;SDS011;73222;41.866;12.462;2024-03-17T13:17:45;11.35;;;5.63;;
43756;SDS011;73222;41.866;12.462;2024-03-17T13:20:15;10.07;;;6.10;;
43756;SDS011;73222;41.866;12.462;2024-03-17T13:22:44;10.45;;;6.07;;
43756;SDS011;73222;41.866;12.462;2024-03-17T13:25:22;10.00;;;5.35;;
43756;SDS011;73222;41.866;12.462;2024-03-17T13:27:51;8.02;;;5.13;;
43756;SDS011;73222;41.866;12.462;2024-03-17T13:30:18;8.07;;;5.63;;
43756;SDS011;73222;41.866;12.462;2024-03-17T13:32:49;8.95;;;5.45;;
43756;SDS011;73222;41.866;12.462;2024-03-17T13:35:21;7.25;;;4.15;;
43756;SDS011;73222;41.866;12.462;2024-03-17T13:37:48;7.35;;;4.10;;
43756;SDS011;73222;41.866;12.462;2024-03-17T13:40:15;5.97;;;3.53;;
43756;SDS011;73222;41.866;12.462;2024-03-17T13:42:46;6.05;;;3.95;;
43756;SDS011;73222;41.866;12.462;2024-03-17T13:45:14;8.27;;;3.95;;
43756;SDS011;73222;41.866;12.462;2024-03-17T13:47:40;14.55;;;4.35;;
43756;SDS011;73222;41.866;12.462;2024-03-17T13:50:06;8.23;;;3.65;;
43756;SDS011;73222;41.866;12.462;2024-03-17T13:52:43;5.72;;;3.30;;
43756;SDS011;73222;41.866;12.462;2024-03-17T13:55:15;7.05;;;3.70;;
43756;SDS011;73222;41.866;12.462;2024-03-17T13:57:44;6.13;;;3.17;;
43756;SDS011;73222;41.866;12.462;2024-03-17T14:00:10;5.82;;;3.60;;
43756;SDS011;73222;41.866;12.462;2024-03-17T14:02:41;5.22;;;2.88;;
43756;SDS011;73222;41.866;12.462;2024-03-17T14:05:13;6.78;;;3.50;;
43756;SDS011;73222;41.866;12.462;2024-03-17T14:07:43;6.75;;;3.85;;
43756;SDS011;73222;41.866;12.462;2024-03-17T14:10:10;5.88;;;3.40;;
43756;SDS011;73222;41.866;12.462;2024-03-17T14:12:37;5.05;;;3.17;;
43756;SDS011;73222;41.866;12.462;2024-03-17T14:15:04;7.00;;;3.55;;
43756;SDS011;73222;41.866;12.462;2024-03-17T14:17:31;5.57;;;3.30;;
43756;SDS011;73222;41.866;12.462;2024-03-17T14:19:56;8.38;;;3.75;;
43756;SDS011;73222;41.866;12.462;2024-03-17T14:22:22;5.18;;;2.90;;
43756;SDS011;73222;41.866;12.462;2024-03-17T14:24:47;7.22;;;3.03;;
43756;SDS011;73222;41.866;12.462;2024-03-17T14:27:17;5.00;;;3.20;;
43756;SDS011;73222;41.866;12.462;2024-03-17T14:29:49;7.45;;;3.40;;
43756;SDS011;73222;41.866;12.462;2024-03-17T14:32:15;7.00;;;2.75;;
43756;SDS011;73222;41.866;12.462;2024-03-17T14:34:40;6.07;;;2.72;;
43756;SDS011;73222;41.866;12.462;2024-03-17T14:37:05;5.45;;;2.63;;
43756;SDS011;73222;41.866;12.462;2024-03-17T14:39:32;6.47;;;3.00;;
43756;SDS011;73222;41.866;12.462;2024-03-17T14:41:57;6.30;;;2.90;;
43756;SDS011;73222;41.866;12.462;2024-03-17T14:44:23;6.40;;;3.10;;
43756;SDS011;73222;41.866;12.462;2024-03-17T14:46:49;4.13;;;2.85;;
43756;SDS011;73222;41.866;12.462;2024-03-17T14:49:16;6.97;;;2.88;;
43756;SDS011;73222;41.866;12.462;2024-03-17T14:51:41;8.23;;;2.88;;
43756;SDS011;73222;41.866;12.462;2024-03-17T14:54:07;5.15;;;2.75;;
43756;SDS011;73222;41.866;12.462;2024-03-17T14:56:34;5.00;;;2.80;;
43756;SDS011;73222;41.866;12.462;2024-03-17T14:59:00;5.72;;;2.30;;
43756;SDS011;73222;41.866;12.462;2024-03-17T15:01:25;4.97;;;2.05;;
43756;SDS011;73222;41.866;12.462;2024-03-17T15:03:54;6.85;;;2.50;;